This is the latest recevied weather packets stored in our database for station/object DL4NBA-1. If no packets are shown the sender has not sent any weather packets the latest 10 day(s).
| Time | Temp. | Humidity | Pressure | Rain* | Wind** | Luminosity | Snow |
|---|---|---|---|---|---|---|---|
| 1777929247 | 16.11° C | - | - | 0 mm | 2.24 m/s, 297° | - | - |
| 1777928350 | 16.11° C | - | - | 0 mm | 2.24 m/s, 297° | - | - |
| 1777928052 | 16.11° C | - | - | 0 mm | 2.24 m/s, 316° | - | - |
| 1777927749 | 16.11° C | - | - | 0 mm | 2.24 m/s, 301° | - | - |
| 1777927448 | 16.11° C | - | - | 0 mm | 2.68 m/s, 285° | - | - |
| 1777927150 | 16.67° C | - | - | 0 mm | 2.24 m/s, 281° | - | - |
| 1777926550 | 16.11° C | - | - | 0 mm | 0 m/s | - | - |
| 1777926248 | 16.67° C | - | - | 0 mm | 0 m/s | - | - |
| 1777925949 | 16.67° C | - | - | 0 mm | 0 m/s | - | - |
| 1777925349 | 16.11° C | - | - | 0 mm | 0 m/s | - | - |
| 1777925050 | 16.67° C | - | - | 0 mm | 0 m/s | - | - |
| 1777924747 | 16.11° C | - | - | 0 mm | 0 m/s | - | - |
| 1777924448 | 16.67° C | - | - | 0 mm | 0 m/s | - | - |
| 1777924149 | 16.11° C | - | - | 0 mm | 0 m/s | - | - |
| 1777923849 | 17.78° C | - | - | 0 mm | 0 m/s | - | - |
| 1777923550 | 17.78° C | - | - | 0 mm | 0 m/s | - | - |
| 1777922648 | 17.22° C | - | - | 0 mm | 1.34 m/s, 323° | - | - |
| 1777922349 | 17.22° C | - | - | 0 mm | 1.34 m/s, 309° | - | - |
| 1777922050 | 17.22° C | - | - | 0 mm | 1.34 m/s, 318° | - | - |
| 1777921747 | 17.22° C | - | - | 0 mm | 1.79 m/s, 319° | - | - |
| 1777921448 | 16.67° C | - | - | 0 mm | 1.79 m/s, 321° | - | - |
| 1777921148 | 17.22° C | - | - | 0 mm | 1.79 m/s, 326° | - | - |
| 1777920849 | 17.78° C | - | - | 0 mm | 1.79 m/s, 316° | - | - |
| 1777920550 | 17.78° C | - | - | 0 mm | 1.79 m/s, 316° | - | - |
| 1777920247 | 17.78° C | - | - | 0 mm | 2.24 m/s, 309° | - | - |
* Rain latest hour (hover to see other rain measurements)
** Current wind speed in m/s (hover to see current wind gust speed)